Kezdőlap
METAR-TAF:

METAR-TAF

Repülőterek :

Baza 71 Aeriană

Aranyosgyéres, Románia

földrajzi szélesség: 46-30-12N, földrajzi hosszúság: 023-53-07E, magasság: 324 m

Jelenlegi meteorológiai megfigyelések

A jelentés 34 perccel ezelõtt készült, 18:00 UTC
Nyugat-északnyugati szél 12 kt
Hőmérséklet 5°C
Páratartalom 87%
Légköri nyomás 1008 hPa
Látótávolság 10 km, vagy több
Borult 4000 lábon

METAR: LRCT 181800Z 30012KT 9999 OVC040 05/03 Q1008 BLU BLU

Idő: 21:34 (18:34 UTC)


TAF: hiányzik

Meteorológiai megfigyelések és előrejelzések több, mint 4000 repülőtéren (METAR és TAF jelentéseket).

A térképen piros és sárga pontok jelzik az elérhető meteorológiai állomásokat.

Mozgassa az egeret a pont fölött, hogy megjelenjen az állomás neve.

Azután kattintson az időjárási megfigyelések és előrejelzések megtekintéséhez.

A térkép megváltoztatása: kattintson a fekete keresztel jelölt zöld gombra ráközelítéshez, a vonallal jelölt zöld gombra távolításhoz, vagy a zöld nyilakra a szomszédos térképek eléréséhez.


METAR-TAF: